createdAt,value
2018-10-05T00:00:24.498Z,13.27
2018-10-05T00:03:03.627Z,13.26
2018-10-05T00:05:40.729Z,13.24
2018-10-05T00:08:19.035Z,13.19
2018-10-05T00:10:56.271Z,13.16
2018-10-05T00:13:33.853Z,13.14
2018-10-05T00:16:13.082Z,13.11
2018-10-05T00:18:52.176Z,13.09
2018-10-05T00:21:31.008Z,13.24
2018-10-05T00:24:09.831Z,13.19
2018-10-05T00:26:47.141Z,13.15
2018-10-05T00:29:23.668Z,13.11
2018-10-05T00:32:02.745Z,13.09
2018-10-05T00:34:32.359Z,13.06
2018-10-05T00:37:01.922Z,13.03
2018-10-05T00:39:31.477Z,13.00
2018-10-05T00:42:01.035Z,12.97
2018-10-05T00:44:30.894Z,12.94
2018-10-05T00:47:00.619Z,12.92
2018-10-05T00:49:30.307Z,12.92
2018-10-05T00:52:00.210Z,12.90
2018-10-05T00:54:29.881Z,12.90
2018-10-05T00:56:59.545Z,12.88
2018-10-05T00:59:29.344Z,12.85
2018-10-05T01:01:59.083Z,12.83
2018-10-05T01:04:28.657Z,12.81
2018-10-05T01:06:58.391Z,12.77
2018-10-05T01:09:28.197Z,12.75
2018-10-05T01:11:57.754Z,12.72
2018-10-05T01:14:27.581Z,12.70
2018-10-05T01:16:57.812Z,12.67
2018-10-05T01:19:27.982Z,12.66
2018-10-05T01:21:57.578Z,12.64
2018-10-05T01:24:27.136Z,12.60
2018-10-05T01:26:56.685Z,12.59
2018-10-05T01:29:26.210Z,12.56
2018-10-05T01:31:55.763Z,12.55
2018-10-05T01:34:25.323Z,12.50
2018-10-05T01:36:54.933Z,12.47
2018-10-05T01:39:24.530Z,12.45
2018-10-05T01:41:54.042Z,12.42
2018-10-05T01:44:23.629Z,12.43
2018-10-05T01:46:53.166Z,12.42
2018-10-05T01:49:22.726Z,12.40
2018-10-05T01:51:52.278Z,12.38
2018-10-05T01:54:22.028Z,12.37
2018-10-05T01:56:51.602Z,12.38
2018-10-05T01:59:21.163Z,12.37
2018-10-05T02:01:50.709Z,12.35
2018-10-05T02:04:20.340Z,12.33
2018-10-05T02:06:49.930Z,12.31
2018-10-05T02:09:19.461Z,12.29
2018-10-05T02:11:49.051Z,12.26
2018-10-05T02:14:18.598Z,12.27
2018-10-05T02:16:48.162Z,12.26
2018-10-05T02:19:17.718Z,12.27
2018-10-05T02:21:47.252Z,12.26
2018-10-05T02:24:16.887Z,12.24
2018-10-05T02:26:46.454Z,12.24
2018-10-05T02:29:16.019Z,12.22
2018-10-05T02:31:45.563Z,12.19
2018-10-05T02:34:15.248Z,12.18
2018-10-05T02:36:44.802Z,12.17
2018-10-05T02:39:14.461Z,12.17
2018-10-05T02:41:44.079Z,12.16
2018-10-05T02:44:13.618Z,12.13
2018-10-05T02:46:43.187Z,12.13
2018-10-05T02:49:12.722Z,12.11
2018-10-05T02:51:42.294Z,12.07
2018-10-05T02:54:11.850Z,12.02
2018-10-05T02:56:41.425Z,12.03
2018-10-05T02:59:10.956Z,11.99
2018-10-05T03:01:57.297Z,12.06
2018-10-05T03:04:26.877Z,11.98
2018-10-05T03:06:56.747Z,11.89
2018-10-05T03:09:26.444Z,11.82
2018-10-05T03:11:55.976Z,11.77
2018-10-05T03:14:25.630Z,11.74
2018-10-05T03:16:55.327Z,11.71
2018-10-05T03:19:25.086Z,11.52
2018-10-05T03:21:54.661Z,11.61
2018-10-05T03:24:24.305Z,11.58
2018-10-05T03:26:54.045Z,11.59
2018-10-05T03:29:23.760Z,11.55
2018-10-05T03:31:53.466Z,11.52
2018-10-05T03:34:23.170Z,11.47
2018-10-05T03:36:52.865Z,11.45
2018-10-05T03:39:22.752Z,11.42
2018-10-05T03:41:52.401Z,11.42
2018-10-05T03:44:22.215Z,11.42
2018-10-05T03:46:51.949Z,11.42
2018-10-05T03:49:25.999Z,11.41
2018-10-05T03:51:55.706Z,11.40
2018-10-05T03:54:26.290Z,11.40
2018-10-05T03:56:56.090Z,11.36
2018-10-05T03:59:25.891Z,11.39
2018-10-05T04:01:55.478Z,11.36
2018-10-05T04:04:25.007Z,11.33
2018-10-05T04:06:54.682Z,11.33
2018-10-05T04:09:24.254Z,11.30
2018-10-05T04:11:53.828Z,11.32
2018-10-05T04:14:23.458Z,11.33
2018-10-05T04:16:53.077Z,11.34
2018-10-05T04:19:22.665Z,11.36
2018-10-05T04:21:52.420Z,11.40
2018-10-05T04:24:22.002Z,11.42
2018-10-05T04:26:51.624Z,11.43
2018-10-05T04:29:21.250Z,11.42
2018-10-05T04:31:50.862Z,11.39
2018-10-05T04:34:20.488Z,11.37
2018-10-05T04:36:50.518Z,11.35
2018-10-05T04:39:20.144Z,11.32
2018-10-05T04:41:50.192Z,11.29
2018-10-05T04:44:19.979Z,11.25
2018-10-05T04:46:49.602Z,11.22
2018-10-05T04:49:19.232Z,11.18
2018-10-05T04:51:48.897Z,11.16
2018-10-05T04:54:18.474Z,11.14
2018-10-05T04:56:48.205Z,11.10
2018-10-05T04:59:17.821Z,11.07
2018-10-05T05:01:47.955Z,11.04
2018-10-05T05:04:17.639Z,11.02
2018-10-05T05:06:47.365Z,10.99
2018-10-05T05:09:17.009Z,10.96
2018-10-05T05:11:46.657Z,10.94
2018-10-05T05:14:16.275Z,10.93
2018-10-05T05:16:45.990Z,10.91
2018-10-05T05:19:15.836Z,10.90
2018-10-05T05:21:45.433Z,10.88
2018-10-05T05:24:15.091Z,10.86
2018-10-05T05:26:47.888Z,10.83
2018-10-05T05:29:17.538Z,10.80
2018-10-05T05:31:47.245Z,10.79
2018-10-05T05:34:19.779Z,10.76
2018-10-05T05:36:52.385Z,10.73
2018-10-05T05:39:21.964Z,10.71
2018-10-05T05:41:51.658Z,10.71
2018-10-05T05:44:21.312Z,10.68
2018-10-05T05:46:50.983Z,10.67
2018-10-05T05:49:20.655Z,10.67
2018-10-05T05:51:50.334Z,10.67
2018-10-05T05:54:19.911Z,10.64
2018-10-05T05:56:49.676Z,10.66
2018-10-05T05:59:19.327Z,10.67
2018-10-05T06:01:59.655Z,10.66
2018-10-05T06:04:29.269Z,10.66
2018-10-05T06:06:58.841Z,10.67
2018-10-05T06:09:28.415Z,10.70
2018-10-05T06:11:58.002Z,10.72
2018-10-05T06:14:27.597Z,10.73
2018-10-05T06:16:57.230Z,10.73
2018-10-05T06:19:26.838Z,10.75
2018-10-05T06:21:56.655Z,10.79
2018-10-05T06:24:26.154Z,10.82
2018-10-05T06:26:55.742Z,10.83
2018-10-05T06:29:25.451Z,10.86
2018-10-05T06:31:55.049Z,10.89
2018-10-05T06:34:24.625Z,10.93
2018-10-05T06:36:54.256Z,10.97
2018-10-05T06:39:23.831Z,11.03
2018-10-05T06:41:53.525Z,11.07
2018-10-05T06:44:23.018Z,11.13
2018-10-05T06:46:52.808Z,11.19
2018-10-05T06:49:22.497Z,11.45
2018-10-05T06:51:52.169Z,11.48
2018-10-05T06:54:21.826Z,11.54
2018-10-05T06:56:51.458Z,11.61
2018-10-05T06:59:21.094Z,11.67
2018-10-05T07:01:50.745Z,11.74
2018-10-05T07:04:20.357Z,11.82
2018-10-05T07:06:49.988Z,11.90
2018-10-05T07:09:19.622Z,11.98
2018-10-05T07:11:49.301Z,12.03
2018-10-05T07:14:18.914Z,12.08
2018-10-05T07:16:48.518Z,12.14
2018-10-05T07:19:18.203Z,12.21
2018-10-05T07:21:47.810Z,12.31
2018-10-05T07:24:18.447Z,12.40
2018-10-05T07:26:48.129Z,12.47
2018-10-05T07:29:17.755Z,12.54
2018-10-05T07:31:47.387Z,12.62
2018-10-05T07:34:16.973Z,12.70
2018-10-05T07:36:46.623Z,12.76
2018-10-05T07:39:16.252Z,12.83
2018-10-05T07:41:45.859Z,12.91
2018-10-05T07:44:15.550Z,13.01
2018-10-05T07:46:45.139Z,13.08
2018-10-05T07:49:14.744Z,13.17
2018-10-05T07:51:44.398Z,13.25
2018-10-05T07:54:13.973Z,13.31
2018-10-05T07:56:43.595Z,13.38
2018-10-05T07:59:13.255Z,13.45
2018-10-05T08:01:42.852Z,13.50
2018-10-05T08:04:12.555Z,13.63
2018-10-05T08:06:42.219Z,13.73
2018-10-05T08:09:12.110Z,13.81
2018-10-05T08:11:41.711Z,13.89
2018-10-05T08:14:11.319Z,13.99
2018-10-05T08:16:41.035Z,14.09
2018-10-05T08:19:10.732Z,14.21
2018-10-05T08:21:40.559Z,14.33
2018-10-05T08:24:10.153Z,14.43
2018-10-05T08:26:39.792Z,14.55
2018-10-05T08:29:09.553Z,14.65
2018-10-05T08:31:39.226Z,14.78
2018-10-05T08:34:09.018Z,14.90
2018-10-05T08:36:38.567Z,15.00
2018-10-05T08:39:10.612Z,15.12
2018-10-05T08:41:40.331Z,15.24
2018-10-05T08:44:10.414Z,15.35
2018-10-05T08:46:41.427Z,15.43
2018-10-05T08:49:11.061Z,15.53
2018-10-05T08:51:40.731Z,15.61
2018-10-05T08:54:10.411Z,15.71
2018-10-05T08:56:40.006Z,15.82
2018-10-05T08:59:09.696Z,15.91
2018-10-05T09:01:39.278Z,16.03
2018-10-05T09:04:08.962Z,16.12
2018-10-05T09:06:38.552Z,16.21
2018-10-05T09:09:08.855Z,16.32
2018-10-05T09:11:38.477Z,16.40
2018-10-05T09:14:08.610Z,16.52
2018-10-05T09:16:38.267Z,16.65
2018-10-05T09:19:07.938Z,16.76
2018-10-05T09:21:37.623Z,16.87
2018-10-05T09:24:07.383Z,16.95
2018-10-05T09:26:36.865Z,17.04
2018-10-05T09:29:06.583Z,17.17
2018-10-05T09:31:36.213Z,17.28
2018-10-05T09:34:13.495Z,17.39
2018-10-05T09:36:43.154Z,17.50
2018-10-05T09:39:12.846Z,17.60
2018-10-05T09:41:42.496Z,17.67
2018-10-05T09:44:12.056Z,17.74
2018-10-05T09:46:41.697Z,17.83
2018-10-05T09:49:11.531Z,17.89
2018-10-05T09:51:41.133Z,17.99
2018-10-05T09:54:10.727Z,18.10
2018-10-05T09:56:40.323Z,18.23
2018-10-05T09:59:09.882Z,18.31
2018-10-05T10:01:44.378Z,18.43
2018-10-05T10:04:13.931Z,18.54
2018-10-05T10:06:43.517Z,18.80
2018-10-05T10:09:13.094Z,18.91
2018-10-05T10:11:42.638Z,18.98
2018-10-05T10:14:12.298Z,19.03
2018-10-05T10:16:41.873Z,19.09
2018-10-05T10:19:11.554Z,19.14
2018-10-05T10:21:41.236Z,19.18
2018-10-05T10:24:10.934Z,19.24
2018-10-05T10:26:40.491Z,19.28
2018-10-05T10:29:10.275Z,19.34
2018-10-05T10:31:39.741Z,19.42
2018-10-05T10:34:09.467Z,19.49
2018-10-05T10:36:39.070Z,19.55
2018-10-05T10:39:09.255Z,19.61
2018-10-05T10:41:38.810Z,19.64
2018-10-05T10:44:08.350Z,19.73
2018-10-05T10:46:37.931Z,19.83
2018-10-05T10:49:08.110Z,19.90
2018-10-05T10:51:37.722Z,19.94
2018-10-05T10:54:07.355Z,20.03
2018-10-05T10:56:36.847Z,20.08
2018-10-05T10:59:06.696Z,20.17
2018-10-05T11:01:36.348Z,20.24
2018-10-05T11:04:06.327Z,20.31
2018-10-05T11:06:35.965Z,20.38
2018-10-05T11:09:08.098Z,20.43
2018-10-05T11:11:37.683Z,20.49
2018-10-05T11:14:07.269Z,20.52
2018-10-05T11:16:36.897Z,20.57
2018-10-05T11:19:06.892Z,20.69
2018-10-05T11:21:36.474Z,20.81
2018-10-05T11:24:06.732Z,20.88
2018-10-05T11:26:36.370Z,20.99
2018-10-05T11:29:06.278Z,21.12
2018-10-05T11:31:36.031Z,21.27
2018-10-05T11:34:06.271Z,21.48
2018-10-05T11:36:35.817Z,21.73
2018-10-05T11:39:07.218Z,21.96
2018-10-05T11:41:37.035Z,22.20
2018-10-05T11:44:06.924Z,22.39
2018-10-05T11:46:36.486Z,22.61
2018-10-05T11:49:06.746Z,22.81
2018-10-05T11:51:36.367Z,22.98
2018-10-05T11:54:06.190Z,23.18
2018-10-05T11:56:35.727Z,23.34
2018-10-05T11:59:06.262Z,23.60
2018-10-05T12:01:35.977Z,23.91
2018-10-05T12:04:06.494Z,24.18
2018-10-05T12:06:36.070Z,24.34
2018-10-05T12:09:08.497Z,24.64
2018-10-05T12:11:38.495Z,24.85
2018-10-05T12:14:08.109Z,25.08
2018-10-05T12:16:37.678Z,25.27
2018-10-05T12:19:07.246Z,25.38
2018-10-05T12:21:36.778Z,25.54
2018-10-05T12:24:06.332Z,25.79
2018-10-05T12:26:35.941Z,25.92
2018-10-05T12:29:06.714Z,26.17
2018-10-05T12:31:36.327Z,26.56
2018-10-05T12:34:06.925Z,26.86
2018-10-05T12:36:36.701Z,26.99
2018-10-05T12:39:08.479Z,27.10
2018-10-05T12:41:38.625Z,27.19
2018-10-05T12:44:08.654Z,27.39
2018-10-05T12:46:38.386Z,27.72
2018-10-05T12:49:08.019Z,27.98
2018-10-05T12:51:37.592Z,28.20
2018-10-05T12:54:07.170Z,28.60
2018-10-05T12:56:36.722Z,28.74
2018-10-05T12:59:06.654Z,28.89
2018-10-05T13:01:36.267Z,29.28
2018-10-05T13:04:06.507Z,29.43
2018-10-05T13:06:36.059Z,29.30
2018-10-05T13:09:08.346Z,29.60
2018-10-05T13:11:38.646Z,30.14
2018-10-05T13:14:08.384Z,30.67
2018-10-05T13:16:37.967Z,30.66
2018-10-05T13:19:07.741Z,30.11
2018-10-05T13:21:37.294Z,29.77
2018-10-05T13:24:06.947Z,29.86
2018-10-05T13:26:36.500Z,30.33
2018-10-05T13:29:06.608Z,30.60
2018-10-05T13:31:36.245Z,30.80
2018-10-05T13:34:06.707Z,31.09
2018-10-05T13:36:36.222Z,31.24
2018-10-05T13:39:09.870Z,31.37
2018-10-05T13:41:39.939Z,31.68
2018-10-05T13:44:09.429Z,32.07
2018-10-05T13:46:39.023Z,32.04
2018-10-05T13:49:08.628Z,30.94
2018-10-05T13:51:38.297Z,29.75
2018-10-05T13:54:07.889Z,28.83
2018-10-05T13:56:37.443Z,27.85
2018-10-05T13:59:07.635Z,27.04
2018-10-05T14:01:37.246Z,26.48
2018-10-05T14:04:06.851Z,26.16
2018-10-05T14:06:36.438Z,25.77
2018-10-05T14:09:10.292Z,25.46
2018-10-05T14:11:39.900Z,25.22
2018-10-05T14:14:09.478Z,25.06
2018-10-05T14:16:38.992Z,24.97
2018-10-05T14:19:08.646Z,24.86
2018-10-05T14:21:38.241Z,24.75
2018-10-05T14:24:07.995Z,24.58
2018-10-05T14:26:37.553Z,24.32
2018-10-05T14:29:07.142Z,24.14
2018-10-05T14:31:36.737Z,24.07
2018-10-05T14:34:06.406Z,23.98
2018-10-05T14:36:36.021Z,23.94
2018-10-05T14:39:08.539Z,23.86
2018-10-05T14:41:38.141Z,23.78
2018-10-05T14:44:07.715Z,23.71
2018-10-05T14:46:37.282Z,23.70
2018-10-05T14:49:06.987Z,23.67
2018-10-05T14:51:36.523Z,23.64
2018-10-05T14:54:06.185Z,23.59
2018-10-05T14:56:35.812Z,23.47
2018-10-05T14:59:06.319Z,23.40
2018-10-05T15:01:35.985Z,23.37
2018-10-05T15:04:06.483Z,23.40
2018-10-05T15:06:36.141Z,23.24
2018-10-05T15:11:29.384Z,23.42
2018-10-05T15:13:58.913Z,23.43
2018-10-05T15:16:28.571Z,23.43
2018-10-05T15:18:58.147Z,23.39
2018-10-05T15:21:27.725Z,23.49
2018-10-05T15:23:57.288Z,23.47
2018-10-05T15:26:26.863Z,23.41
2018-10-05T15:28:56.475Z,23.37
2018-10-05T15:31:26.018Z,23.68
2018-10-05T15:33:55.654Z,25.05
2018-10-05T15:36:25.246Z,26.64
2018-10-05T15:38:54.905Z,28.01
2018-10-05T15:41:24.417Z,28.85
2018-10-05T15:43:53.987Z,29.56
2018-10-05T15:47:13.102Z,30.45
2018-10-05T15:49:43.083Z,30.95
2018-10-05T15:52:12.775Z,31.20
2018-10-05T15:54:42.353Z,31.54
2018-10-05T15:57:11.924Z,31.43
2018-10-05T15:59:41.475Z,30.20
2018-10-05T16:02:11.052Z,28.80
2018-10-05T16:04:40.673Z,27.63
2018-10-05T16:07:10.334Z,26.71
2018-10-05T16:09:39.939Z,25.90
2018-10-05T16:12:09.532Z,25.27
2018-10-05T16:14:39.142Z,24.76
2018-10-05T16:17:08.695Z,24.33
2018-10-05T16:19:38.301Z,23.97
2018-10-05T16:22:07.987Z,23.64
2018-10-05T16:24:41.714Z,23.33
2018-10-05T16:27:11.910Z,23.01
2018-10-05T16:29:41.522Z,22.71
2018-10-05T16:32:11.635Z,22.43
2018-10-05T16:34:41.198Z,22.16
2018-10-05T16:37:10.887Z,21.92
2018-10-05T16:39:40.493Z,21.68
2018-10-05T16:42:10.057Z,21.47
2018-10-05T16:44:39.678Z,21.27
2018-10-05T16:47:09.311Z,21.03
2018-10-05T16:49:39.110Z,20.85
2018-10-05T16:52:08.799Z,20.66
2018-10-05T16:54:38.395Z,20.43
2018-10-05T16:57:07.968Z,20.25
2018-10-05T16:59:37.640Z,20.02
2018-10-05T17:02:07.254Z,19.79
2018-10-05T17:04:36.779Z,19.56
2018-10-05T17:07:06.962Z,19.35
2018-10-05T17:09:36.599Z,19.17
2018-10-05T17:14:28.491Z,18.79
2018-10-05T17:16:58.504Z,18.63
2018-10-05T17:19:28.314Z,18.45
2018-10-05T17:21:58.122Z,18.28
2018-10-05T17:24:28.047Z,18.15
2018-10-05T17:26:57.942Z,17.97
2018-10-05T17:29:27.954Z,17.83
2018-10-05T17:31:57.699Z,17.69
2018-10-05T17:34:27.500Z,17.59
2018-10-05T17:36:57.516Z,17.48
2018-10-05T17:39:27.334Z,17.38
2018-10-05T17:41:57.071Z,17.28
2018-10-05T17:44:26.951Z,17.37
2018-10-05T17:46:56.773Z,17.20
2018-10-05T17:49:26.578Z,17.05
2018-10-05T17:51:56.479Z,16.94
2018-10-05T17:54:26.307Z,16.82
2018-10-05T17:56:56.297Z,16.70
2018-10-05T17:59:26.134Z,16.61
2018-10-05T18:01:56.035Z,16.51
2018-10-05T18:06:56.494Z,16.33
2018-10-05T18:09:26.501Z,16.21
2018-10-05T18:11:56.528Z,16.12
2018-10-05T18:14:26.446Z,16.04
2018-10-05T18:16:56.401Z,15.94
2018-10-05T18:19:26.263Z,15.87
2018-10-05T18:21:56.195Z,15.77
2018-10-05T18:24:26.280Z,15.68
2018-10-05T18:26:56.399Z,15.62
2018-10-05T18:29:26.430Z,15.55
2018-10-05T18:31:56.451Z,15.47
2018-10-05T18:34:26.365Z,15.41
2018-10-05T18:37:13.738Z,15.33
2018-10-05T18:39:43.375Z,15.23
2018-10-05T18:42:13.086Z,15.13
2018-10-05T18:44:42.807Z,15.07
2018-10-05T18:47:12.443Z,15.01
2018-10-05T18:49:42.364Z,14.95
2018-10-05T18:52:11.955Z,14.92
2018-10-05T18:54:41.770Z,14.89
2018-10-05T18:57:20.870Z,14.86
2018-10-05T18:59:50.551Z,14.80
2018-10-05T19:02:20.752Z,14.77
2018-10-05T19:04:50.428Z,14.70
2018-10-05T19:07:20.081Z,14.63
2018-10-05T19:09:49.634Z,14.55
2018-10-05T19:12:19.253Z,14.47
2018-10-05T19:14:48.787Z,14.39
2018-10-05T19:17:18.378Z,14.34
2018-10-05T19:19:48.007Z,14.27
2018-10-05T19:22:17.578Z,14.22
2018-10-05T19:24:47.194Z,14.17
2018-10-05T19:27:16.851Z,14.13
2018-10-05T19:29:46.454Z,14.07
2018-10-05T19:32:16.001Z,14.02
2018-10-05T19:34:45.659Z,13.96
2018-10-05T19:37:15.232Z,13.93
2018-10-05T19:39:45.024Z,13.91
2018-10-05T19:42:14.860Z,13.85
2018-10-05T19:44:44.453Z,13.81
2018-10-05T19:47:14.098Z,13.75
2018-10-05T19:49:43.697Z,13.72
2018-10-05T19:52:13.345Z,13.67
2018-10-05T19:54:43.068Z,13.61
2018-10-05T19:57:12.735Z,13.56
2018-10-05T19:59:42.322Z,13.51
2018-10-05T20:02:12.140Z,13.46
2018-10-05T20:04:41.751Z,13.41
2018-10-05T20:07:11.398Z,13.39
2018-10-05T20:09:41.064Z,13.35
2018-10-05T20:12:10.761Z,13.31
2018-10-05T20:14:40.500Z,13.26
2018-10-05T20:17:10.108Z,13.23
2018-10-05T20:19:39.687Z,13.19
2018-10-05T20:22:09.735Z,13.12
2018-10-05T20:24:39.342Z,13.08
2018-10-05T20:27:08.967Z,13.06
2018-10-05T20:29:38.536Z,13.01
2018-10-05T20:32:08.137Z,12.97
2018-10-05T20:34:37.723Z,12.91
2018-10-05T20:37:07.712Z,12.86
2018-10-05T20:39:37.222Z,12.83
2018-10-05T20:42:06.852Z,12.80
2018-10-05T20:44:36.537Z,12.75
2018-10-05T20:47:06.421Z,12.71
2018-10-05T20:49:36.051Z,12.67
2018-10-05T20:52:06.340Z,12.64
2018-10-05T20:54:35.951Z,12.61
2018-10-05T20:57:06.710Z,12.58
2018-10-05T20:59:36.291Z,12.52
2018-10-05T21:02:06.643Z,12.47
2018-10-05T21:04:37.083Z,12.42
2018-10-05T21:07:07.313Z,12.39
2018-10-05T21:09:37.275Z,12.35
2018-10-05T21:12:07.053Z,12.33
2018-10-05T21:14:37.560Z,12.31
2018-10-05T21:17:07.570Z,12.30
2018-10-05T21:19:37.407Z,12.28
2018-10-05T21:22:07.332Z,12.26
2018-10-05T21:24:37.242Z,12.24
2018-10-05T21:27:07.054Z,12.19
2018-10-05T21:29:36.867Z,12.17
2018-10-05T21:32:10.241Z,12.15
2018-10-05T21:34:40.187Z,12.12
2018-10-05T21:37:10.202Z,12.10
2018-10-05T21:39:40.103Z,12.08
2018-10-05T21:42:10.067Z,12.05
2018-10-05T21:44:39.715Z,12.01
2018-10-05T21:47:09.261Z,11.98
2018-10-05T21:49:38.876Z,11.96
2018-10-05T21:52:08.454Z,11.88
2018-10-05T21:54:38.004Z,11.83
2018-10-05T21:57:07.562Z,11.81
2018-10-05T21:59:37.116Z,11.76
2018-10-05T22:02:06.731Z,11.74
2018-10-05T22:04:36.423Z,11.70
2018-10-05T22:07:07.085Z,11.67
2018-10-05T22:09:36.723Z,11.64
2018-10-05T22:12:06.363Z,11.61
2018-10-05T22:14:35.954Z,11.59
2018-10-05T22:17:06.290Z,11.57
2018-10-05T22:19:35.930Z,11.55
2018-10-05T22:22:06.677Z,11.53
2018-10-05T22:24:36.217Z,11.50
2018-10-05T22:27:06.655Z,11.47
2018-10-05T22:29:36.231Z,11.45
2018-10-05T22:32:07.118Z,11.45
2018-10-05T22:34:36.707Z,11.45
2018-10-05T22:37:06.244Z,11.42
2018-10-05T22:39:35.795Z,11.39
2018-10-05T22:42:06.611Z,11.37
2018-10-05T22:44:36.224Z,11.44
2018-10-05T22:47:06.594Z,11.50
2018-10-05T22:49:36.122Z,11.53
2018-10-05T22:52:06.775Z,11.54
2018-10-05T22:54:36.311Z,11.53
2018-10-05T22:57:06.628Z,11.51
2018-10-05T22:59:36.198Z,11.50
2018-10-05T23:02:13.325Z,11.46
2018-10-05T23:04:51.030Z,11.43
2018-10-05T23:07:29.331Z,11.42
2018-10-05T23:10:07.401Z,11.38
2018-10-05T23:12:45.915Z,11.35
2018-10-05T23:15:22.788Z,11.29
2018-10-05T23:17:59.060Z,11.24
2018-10-05T23:20:38.371Z,11.23
2018-10-05T23:23:17.625Z,11.19
2018-10-05T23:25:56.042Z,11.17
2018-10-05T23:28:30.589Z,11.14
2018-10-05T23:31:10.258Z,11.13
2018-10-05T23:33:47.904Z,11.09
2018-10-05T23:36:25.904Z,11.06
2018-10-05T23:39:04.784Z,11.03
2018-10-05T23:41:44.399Z,10.98
2018-10-05T23:44:23.018Z,10.96
2018-10-05T23:47:04.212Z,10.94
2018-10-05T23:49:42.198Z,10.94
2018-10-05T23:55:25.769Z,10.96
2018-10-05T23:58:04.702Z,10.95
